Historique des mesures à Cassis (13260), France
Quotidien Résumé Mars 24, 2017 Unités:  US    Métrique   Métrique/US
« Précédent (Jour)
Suivant (Jour) »
Quotidien Hebdomadaire Mensuel Annuel Période au choix
  Maximum: Minimum: Moyenne:
Température: 32 °F 54 °F 56.8 °F
Point de rosée: 32 °F 47.8 °F 50.2 °F
Humidité: Humidity % 58 % 74 %
Vitesse du vent: WindSpeedKMH mph 0.0 mph 6.5 mph
Rafales: WindSpeedGustKMH mph - -
Vent:- - SE
Pression: 0 in 29.9 in -
Précipitations: 63.5 in    
Historical Graphs
 
 
Mesures pour : Mars 24, 2017
Heure Temperature Point de rosée Pression Vent Vitesse du vent Rafales Humidité Pluie (par heure) Conditions
32 °F 32 °F 0 in Calm     Humidity % 0 in SoftwareType W/m2
01:10 55 °F 51.3 °F 29.9 in SSW 2.1 mph 4.0 mph 87 % 12.7 in open2300-1.11 W/m2
02:11 55 °F 51.3 °F 29.9 in SSE 3.2 mph 4.3 mph 87 % 0 in open2300-1.11 W/m2
03:10 54.7 °F 51.3 °F 29.9 in ESE 11.6 mph 11.6 mph 88 % 0 in open2300-1.11 W/m2
04:11 54.5 °F 51.1 °F 29.9 in ESE 5.8 mph 10.8 mph 88 % 12.7 in open2300-1.11 W/m2
05:10 54 °F 50.5 °F 29.9 in SE 9.0 mph 9.0 mph 88 % 12.7 in open2300-1.11 W/m2
06:11 54.1 °F 50.4 °F 29.9 in SSE 6.4 mph 6.4 mph 87 % 0 in open2300-1.11 W/m2
07:10 54.1 °F 50.5 °F 29.9 in ESE 2.1 mph 2.6 mph 88 % 12.7 in open2300-1.11 W/m2
08:11 54.5 °F 50.7 °F 29.9 in Calm     87 % 0 in open2300-1.11 W/m2
09:10 55.6 °F 51.4 °F 29.9 in SSE 10.1 mph 10.1 mph 86 % 0 in open2300-1.11 W/m2
10:11 57.2 °F 52.7 °F 29.9 in SE 11.6 mph 11.6 mph 85 % 0 in open2300-1.11 W/m2
11:10 57.6 °F 52.7 °F 29.9 in ESE 5.0 mph 5.0 mph 84 % 0 in open2300-1.11 W/m2
12:11 59.4 °F 53.2 °F 29.9 in SSE 7.9 mph 7.9 mph 80 % 0 in open2300-1.11 W/m2
13:10 61.3 °F 54.5 °F 29.9 in SE 14.8 mph 14.8 mph 78 % 0 in open2300-1.11 W/m2
14:11 60.6 °F 53.1 °F 29.9 in SE 25.3 mph 25.3 mph 76 % 0 in open2300-1.11 W/m2
15:10 61.3 °F 52.3 °F 29.9 in ESE 5.5 mph 7.9 mph 72 % 0 in open2300-1.11 W/m2
16:11 61.5 °F 52.2 °F 29.9 in SE 6.8 mph 6.8 mph 71 % 0 in open2300-1.11 W/m2
18:11 61 °F 49.6 °F 29.9 in SSE 7.9 mph 7.9 mph 66 % 0 in open2300-1.11 W/m2
20:11 61 °F 48.4 °F 29.9 in SE 2.6 mph 5.8 mph 63 % 0 in open2300-1.11 W/m2
21:10 62.1 °F 48 °F 29.9 in Calm   6.4 mph 60 % 0 in open2300-1.11 W/m2
22:11 62.8 °F 47.8 °F 29.9 in East 5.8 mph 16.6 mph 58 % 0 in open2300-1.11 W/m2
23:10 62.8 °F 47.8 °F 29.9 in Calm   7.6 mph 58 % 0 in open2300-1.11 W/m2
Observations météo à CASSIS
WU-History script by Weather Underground - 1 mb